createdAt,value
2022-09-22T00:01:23.426Z,9.30
2022-09-22T00:03:52.949Z,9.30
2022-09-22T00:06:22.596Z,9.40
2022-09-22T00:08:53.268Z,9.40
2022-09-22T00:11:24.965Z,9.50
2022-09-22T00:13:57.948Z,9.50
2022-09-22T00:16:28.673Z,9.60
2022-09-22T00:18:56.549Z,9.60
2022-09-22T00:21:27.789Z,9.70
2022-09-22T00:23:56.272Z,9.70
2022-09-22T00:26:25.972Z,9.70
2022-09-22T00:28:54.073Z,9.80
2022-09-22T00:31:24.422Z,9.80
2022-09-22T00:33:53.750Z,9.80
2022-09-22T00:36:23.537Z,9.80
2022-09-22T00:38:51.614Z,9.80
2022-09-22T00:41:21.808Z,9.70
2022-09-22T00:43:52.865Z,9.70
2022-09-22T00:46:25.737Z,9.70
2022-09-22T00:49:00.399Z,9.60
2022-09-22T00:51:31.543Z,9.50
2022-09-22T00:54:02.672Z,9.40
2022-09-22T00:56:34.560Z,9.40
2022-09-22T00:59:09.044Z,9.40
2022-09-22T01:01:39.343Z,9.30
2022-09-22T01:04:07.811Z,9.20
2022-09-22T01:06:38.194Z,9.20
2022-09-22T01:09:07.014Z,9.10
2022-09-22T01:11:35.462Z,9.10
2022-09-22T01:14:11.140Z,9.10
2022-09-22T01:16:49.784Z,9.10
2022-09-22T01:19:56.370Z,9.00
2022-09-22T01:22:51.403Z,9.00
2022-09-22T01:25:49.205Z,8.90
2022-09-22T01:28:43.235Z,8.90
2022-09-22T01:31:18.936Z,8.90
2022-09-22T01:33:57.382Z,8.80
2022-09-22T01:36:28.646Z,8.80
2022-09-22T01:39:06.882Z,8.80
2022-09-22T01:41:51.051Z,8.70
2022-09-22T01:44:25.802Z,8.70
2022-09-22T01:46:58.777Z,8.70
2022-09-22T01:49:29.973Z,8.70
2022-09-22T01:52:00.381Z,8.60
2022-09-22T01:54:33.150Z,8.60
2022-09-22T01:57:10.718Z,8.60
2022-09-22T01:59:43.220Z,8.60
2022-09-22T02:02:18.324Z,8.60
2022-09-22T02:04:50.967Z,8.50
2022-09-22T02:07:24.798Z,8.50
2022-09-22T02:09:53.844Z,8.50
2022-09-22T02:12:21.682Z,8.50
2022-09-22T02:20:31.979Z,8.40
2022-09-22T02:22:59.823Z,8.40
2022-09-22T02:25:28.602Z,8.30
2022-09-22T02:27:58.549Z,8.30
2022-09-22T02:30:27.268Z,8.30
2022-09-22T02:32:57.540Z,8.30
2022-09-22T02:35:29.186Z,8.30
2022-09-22T02:38:03.825Z,8.30
2022-09-22T02:40:40.822Z,8.30
2022-09-22T02:43:13.622Z,8.20
2022-09-22T02:45:47.355Z,8.20
2022-09-22T02:48:19.250Z,8.20
2022-09-22T02:50:47.075Z,8.20
2022-09-22T02:53:18.521Z,8.20
2022-09-22T02:55:47.386Z,8.20
2022-09-22T02:58:17.706Z,8.20
2022-09-22T03:00:46.251Z,8.20
2022-09-22T03:03:14.153Z,8.10
2022-09-22T03:05:42.045Z,8.10
2022-09-22T03:08:09.854Z,8.10
2022-09-22T03:10:39.377Z,8.10
2022-09-22T03:13:16.401Z,8.10
2022-09-22T03:15:45.604Z,8.10
2022-09-22T03:18:13.589Z,8.10
2022-09-22T03:20:41.610Z,8.10
2022-09-22T03:23:09.596Z,8.10
2022-09-22T03:25:39.040Z,8.10
2022-09-22T03:28:07.065Z,8.10
2022-09-22T03:30:35.809Z,8.10
2022-09-22T03:33:03.640Z,8.10
2022-09-22T03:35:31.684Z,8.10
2022-09-22T03:37:59.425Z,8.10
2022-09-22T03:40:27.281Z,8.10
2022-09-22T03:42:56.543Z,8.10
2022-09-22T03:45:24.924Z,8.00
2022-09-22T03:47:52.971Z,8.00
2022-09-22T03:50:20.810Z,8.00
2022-09-22T03:52:48.587Z,8.00
2022-09-22T03:55:16.524Z,8.00
2022-09-22T03:57:44.476Z,8.00
2022-09-22T04:00:17.068Z,8.00
2022-09-22T04:02:45.227Z,8.00
2022-09-22T04:05:13.078Z,8.00
2022-09-22T04:07:40.829Z,8.00
2022-09-22T04:10:09.215Z,8.00
2022-09-22T04:12:37.383Z,8.00
2022-09-22T04:15:06.283Z,8.00
2022-09-22T04:17:36.984Z,8.00
2022-09-22T04:20:05.924Z,7.90
2022-09-22T04:22:33.885Z,7.90
2022-09-22T04:25:01.783Z,7.90
2022-09-22T04:27:29.588Z,7.90
2022-09-22T04:29:57.756Z,8.00
2022-09-22T04:32:25.757Z,8.00
2022-09-22T04:34:55.098Z,8.00
2022-09-22T04:37:22.938Z,8.10
2022-09-22T04:39:54.077Z,8.10
2022-09-22T04:42:21.944Z,8.00
2022-09-22T04:44:49.811Z,8.00
2022-09-22T04:47:17.779Z,7.90
2022-09-22T04:49:45.992Z,7.90
2022-09-22T04:52:15.228Z,7.90
2022-09-22T04:54:45.627Z,7.90
2022-09-22T04:57:17.130Z,7.90
2022-09-22T04:59:47.704Z,7.80
2022-09-22T05:02:34.971Z,7.80
2022-09-22T05:05:02.830Z,7.80
2022-09-22T05:07:32.079Z,7.80
2022-09-22T05:10:00.097Z,7.80
2022-09-22T05:12:28.174Z,7.80
2022-09-22T05:14:56.231Z,7.80
2022-09-22T05:17:24.685Z,7.90
2022-09-22T05:19:58.255Z,7.90
2022-09-22T05:22:26.202Z,7.90
2022-09-22T05:24:55.424Z,8.00
2022-09-22T05:27:23.498Z,8.00
2022-09-22T05:29:51.599Z,8.00
2022-09-22T05:32:19.606Z,8.00
2022-09-22T05:34:47.415Z,8.00
2022-09-22T05:37:15.234Z,8.00
2022-09-22T05:39:43.021Z,8.00
2022-09-22T05:42:12.205Z,8.00
2022-09-22T05:44:40.027Z,7.90
2022-09-22T05:47:07.973Z,7.90
2022-09-22T05:49:39.676Z,7.90
2022-09-22T05:52:07.512Z,7.90
2022-09-22T05:54:35.390Z,8.00
2022-09-22T05:57:03.196Z,8.00
2022-09-22T05:59:32.411Z,8.00
2022-09-22T06:02:18.070Z,8.00
2022-09-22T06:04:52.349Z,8.00
2022-09-22T06:07:21.361Z,8.10
2022-09-22T06:09:50.987Z,8.10
2022-09-22T06:12:19.567Z,8.10
2022-09-22T06:14:49.455Z,8.10
2022-09-22T06:17:17.655Z,8.20
2022-09-22T06:19:49.814Z,8.20
2022-09-22T06:22:18.356Z,8.30
2022-09-22T06:24:46.271Z,8.40
2022-09-22T06:27:14.126Z,8.40
2022-09-22T06:29:42.392Z,8.50
2022-09-22T06:32:12.004Z,8.50
2022-09-22T06:34:39.811Z,8.60
2022-09-22T06:37:09.699Z,8.70
2022-09-22T06:39:38.342Z,8.70
2022-09-22T06:42:06.658Z,8.80
2022-09-22T06:44:36.070Z,8.90
2022-09-22T06:47:06.238Z,8.90
2022-09-22T06:49:35.671Z,9.00
2022-09-22T06:52:03.890Z,9.10
2022-09-22T06:54:31.752Z,9.30
2022-09-22T06:56:59.573Z,9.40
2022-09-22T06:59:27.598Z,9.50
2022-09-22T07:01:55.581Z,9.60
2022-09-22T07:04:23.692Z,9.80
2022-09-22T07:06:53.249Z,9.80
2022-09-22T07:09:21.233Z,10.00
2022-09-22T07:11:49.522Z,10.10
2022-09-22T07:14:19.352Z,10.10
2022-09-22T07:16:47.181Z,10.20
2022-09-22T07:19:15.471Z,10.30
2022-09-22T07:21:44.312Z,10.40
2022-09-22T07:24:14.888Z,10.40
2022-09-22T07:26:42.687Z,10.50
2022-09-22T07:29:13.149Z,10.50
2022-09-22T07:31:41.844Z,10.60
2022-09-22T07:34:10.744Z,10.70
2022-09-22T07:36:40.052Z,10.80
2022-09-22T07:39:10.911Z,10.80
2022-09-22T07:41:43.072Z,11.00
2022-09-22T07:44:30.921Z,11.10
2022-09-22T07:46:59.262Z,11.20
2022-09-22T07:49:27.534Z,11.30
2022-09-22T07:51:57.235Z,11.40
2022-09-22T07:54:26.095Z,11.50
2022-09-22T07:56:58.381Z,11.60
2022-09-22T07:59:27.493Z,11.70
2022-09-22T08:01:56.582Z,11.80
2022-09-22T08:04:26.613Z,11.90
2022-09-22T08:06:56.338Z,12.00
2022-09-22T08:09:24.919Z,12.10
2022-09-22T08:11:53.502Z,12.20
2022-09-22T08:14:24.976Z,12.30
2022-09-22T08:16:54.160Z,12.40
2022-09-22T08:19:24.289Z,12.50
2022-09-22T08:21:54.139Z,12.60
2022-09-22T08:24:23.533Z,12.70
2022-09-22T08:26:55.661Z,12.80
2022-09-22T08:29:25.395Z,12.90
2022-09-22T08:31:54.412Z,13.00
2022-09-22T08:34:22.450Z,13.10
2022-09-22T08:36:50.405Z,13.20
2022-09-22T08:39:19.173Z,13.30
2022-09-22T08:41:57.882Z,13.40
2022-09-22T08:44:30.094Z,13.50
2022-09-22T08:47:03.027Z,13.60
2022-09-22T08:49:54.396Z,13.70
2022-09-22T08:52:34.869Z,13.80
2022-09-22T08:55:04.184Z,13.90
2022-09-22T08:58:00.321Z,14.00
2022-09-22T09:00:37.098Z,14.10
2022-09-22T09:03:28.871Z,14.20
2022-09-22T09:06:07.394Z,14.30
2022-09-22T09:09:04.849Z,14.40
2022-09-22T09:11:52.576Z,14.40
2022-09-22T09:14:40.180Z,14.50
2022-09-22T09:17:13.027Z,14.60
2022-09-22T09:19:49.554Z,14.70
2022-09-22T09:22:25.097Z,14.80
2022-09-22T09:27:53.004Z,14.90
2022-09-22T09:30:24.487Z,15.00
2022-09-22T09:32:57.604Z,15.10
2022-09-22T09:35:39.727Z,15.10
2022-09-22T09:38:14.651Z,15.20
2022-09-22T09:40:43.038Z,15.20
2022-09-22T09:43:12.126Z,15.30
2022-09-22T09:45:51.844Z,15.40
2022-09-22T09:48:32.173Z,15.50
2022-09-22T09:51:03.751Z,15.60
2022-09-22T09:53:34.129Z,15.70
2022-09-22T09:56:22.006Z,15.70
2022-09-22T09:59:19.637Z,15.70
2022-09-22T10:01:50.775Z,15.70
2022-09-22T10:04:34.245Z,15.80
2022-09-22T10:07:14.113Z,15.90
2022-09-22T10:09:42.559Z,15.90
2022-09-22T10:12:27.499Z,16.00
2022-09-22T10:14:57.423Z,16.00
2022-09-22T10:17:29.820Z,16.00
2022-09-22T10:20:19.442Z,16.00
2022-09-22T10:22:47.682Z,16.10
2022-09-22T10:25:22.818Z,16.10
2022-09-22T10:28:06.988Z,16.10
2022-09-22T10:30:37.673Z,16.10
2022-09-22T10:33:15.014Z,16.10
2022-09-22T10:35:47.174Z,16.10
2022-09-22T10:38:21.615Z,16.20
2022-09-22T10:40:56.356Z,16.30
2022-09-22T10:43:46.493Z,16.50
2022-09-22T10:46:49.106Z,16.50
2022-09-22T10:49:31.634Z,16.50
2022-09-22T10:52:12.115Z,16.60
2022-09-22T10:54:50.064Z,16.70
2022-09-22T10:57:32.149Z,16.70
2022-09-22T11:00:09.898Z,16.70
2022-09-22T11:03:17.900Z,16.70
2022-09-22T11:06:11.519Z,16.80
2022-09-22T11:09:12.002Z,16.80
2022-09-22T11:12:03.132Z,16.80
2022-09-22T11:14:45.818Z,16.90
2022-09-22T11:17:24.273Z,16.90
2022-09-22T11:20:08.714Z,16.80
2022-09-22T11:22:52.243Z,16.70
2022-09-22T11:25:45.586Z,16.80
2022-09-22T11:28:29.484Z,16.90
2022-09-22T11:30:59.014Z,16.90
2022-09-22T11:33:49.608Z,17.10
2022-09-22T11:36:28.323Z,17.20
2022-09-22T11:39:20.746Z,17.20
2022-09-22T11:42:04.997Z,17.30
2022-09-22T11:44:38.957Z,17.40
2022-09-22T11:47:47.905Z,17.40
2022-09-22T11:50:39.553Z,17.50
2022-09-22T11:53:39.351Z,17.60
2022-09-22T11:56:23.642Z,17.60
2022-09-22T11:58:56.753Z,17.70
2022-09-22T12:01:29.917Z,17.80
2022-09-22T12:04:02.613Z,17.90
2022-09-22T12:06:37.154Z,18.00
2022-09-22T12:09:12.405Z,18.10
2022-09-22T12:11:41.736Z,18.20
2022-09-22T12:14:15.069Z,18.30
2022-09-22T12:16:48.543Z,18.40
2022-09-22T12:19:25.132Z,18.50
2022-09-22T12:22:00.891Z,18.60
2022-09-22T12:24:28.849Z,18.60
2022-09-22T12:26:56.792Z,18.60
2022-09-22T12:29:31.801Z,18.60
2022-09-22T12:32:00.765Z,18.50
2022-09-22T12:34:33.641Z,18.60
2022-09-22T12:37:11.813Z,18.60
2022-09-22T12:39:43.116Z,18.70
2022-09-22T12:42:22.194Z,18.70
2022-09-22T12:44:54.860Z,18.80
2022-09-22T12:47:29.299Z,18.80
2022-09-22T12:49:58.896Z,18.80
2022-09-22T12:53:03.103Z,18.90
2022-09-22T12:55:38.453Z,18.80
2022-09-22T12:58:43.139Z,18.70
2022-09-22T13:01:33.667Z,18.60
2022-09-22T13:04:17.378Z,18.50
2022-09-22T13:07:00.585Z,18.40
2022-09-22T13:09:30.532Z,18.40
2022-09-22T13:12:28.251Z,18.40
2022-09-22T13:15:16.339Z,18.40
2022-09-22T13:17:45.830Z,18.40
2022-09-22T13:20:16.779Z,18.50
2022-09-22T13:22:46.939Z,18.60
2022-09-22T13:25:23.281Z,18.70
2022-09-22T13:28:11.115Z,18.80
2022-09-22T13:30:41.669Z,18.80
2022-09-22T13:33:20.292Z,18.80
2022-09-22T13:35:49.037Z,18.90
2022-09-22T13:38:17.361Z,18.80
2022-09-22T13:40:53.291Z,18.60
2022-09-22T13:43:30.188Z,18.40
2022-09-22T13:46:03.673Z,18.40
2022-09-22T13:48:35.539Z,18.30
2022-09-22T13:51:09.561Z,18.30
2022-09-22T13:53:38.859Z,18.20
2022-09-22T13:56:15.959Z,18.30
2022-09-22T13:58:49.955Z,18.40
2022-09-22T14:01:22.643Z,18.50
2022-09-22T14:03:53.398Z,18.60
2022-09-22T14:06:23.902Z,18.70
2022-09-22T14:08:53.020Z,18.80
2022-09-22T14:11:24.286Z,18.90
2022-09-22T14:14:00.322Z,18.90
2022-09-22T14:16:34.126Z,18.90
2022-09-22T14:19:05.968Z,18.80
2022-09-22T14:21:40.616Z,18.60
2022-09-22T14:24:08.852Z,18.60
2022-09-22T14:26:39.161Z,18.70
2022-09-22T14:29:17.130Z,18.70
2022-09-22T14:31:49.736Z,18.60
2022-09-22T14:34:24.002Z,18.60
2022-09-22T14:36:54.176Z,18.60
2022-09-22T14:39:31.913Z,18.60
2022-09-22T14:42:09.023Z,18.60
2022-09-22T14:44:42.733Z,18.50
2022-09-22T14:47:25.625Z,18.50
2022-09-22T14:50:12.176Z,18.50
2022-09-22T14:52:43.260Z,18.60
2022-09-22T14:55:20.078Z,18.60
2022-09-22T14:57:49.873Z,18.50
2022-09-22T15:00:36.530Z,18.40
2022-09-22T15:03:15.730Z,18.40
2022-09-22T15:05:44.285Z,18.20
2022-09-22T15:08:18.161Z,18.10
2022-09-22T15:10:53.353Z,18.00
2022-09-22T15:13:30.582Z,17.90
2022-09-22T15:15:59.155Z,17.80
2022-09-22T15:18:30.804Z,17.70
2022-09-22T15:21:04.012Z,17.60
2022-09-22T15:23:39.462Z,17.50
2022-09-22T15:26:07.643Z,17.40
2022-09-22T15:28:37.578Z,17.40
2022-09-22T15:31:06.518Z,17.40
2022-09-22T15:33:35.712Z,17.50
2022-09-22T15:36:15.842Z,17.50
2022-09-22T15:38:44.073Z,17.60
2022-09-22T15:41:13.082Z,17.60
2022-09-22T15:43:47.576Z,17.60
2022-09-22T15:46:31.599Z,17.60
2022-09-22T15:49:03.992Z,17.60
2022-09-22T15:51:32.906Z,17.60
2022-09-22T15:54:00.904Z,17.50
2022-09-22T15:56:30.901Z,17.40
2022-09-22T15:59:01.261Z,17.40
2022-09-22T16:01:29.658Z,17.40
2022-09-22T16:04:01.441Z,17.30
2022-09-22T16:06:30.909Z,17.20
2022-09-22T16:09:02.232Z,17.20
2022-09-22T16:11:30.420Z,17.20
2022-09-22T16:14:06.450Z,17.10
2022-09-22T16:16:45.051Z,17.10
2022-09-22T16:19:13.979Z,17.00
2022-09-22T16:21:50.532Z,17.00
2022-09-22T16:24:19.002Z,17.00
2022-09-22T16:26:46.938Z,17.00
2022-09-22T16:29:14.793Z,17.00
2022-09-22T16:31:42.689Z,16.90
2022-09-22T16:34:11.904Z,16.90
2022-09-22T16:36:41.809Z,16.90
2022-09-22T16:39:14.860Z,16.90
2022-09-22T16:41:46.018Z,16.80
2022-09-22T16:44:23.409Z,16.70
2022-09-22T16:46:51.820Z,16.60
2022-09-22T16:49:21.095Z,16.50
2022-09-22T16:51:50.602Z,16.40
2022-09-22T16:54:20.116Z,16.30
2022-09-22T16:56:52.588Z,16.20
2022-09-22T16:59:22.386Z,16.10
2022-09-22T17:01:53.698Z,16.10
2022-09-22T17:04:21.784Z,16.00
2022-09-22T17:06:50.069Z,16.00
2022-09-22T17:09:19.815Z,16.10
2022-09-22T17:11:49.110Z,16.00
2022-09-22T17:14:21.524Z,16.10
2022-09-22T17:16:51.949Z,16.10
2022-09-22T17:19:21.889Z,16.10
2022-09-22T17:21:53.166Z,16.10
2022-09-22T17:24:22.982Z,16.00
2022-09-22T17:26:52.693Z,16.00
2022-09-22T17:29:24.773Z,15.90
2022-09-22T17:31:56.515Z,15.80
2022-09-22T17:34:24.766Z,15.70
2022-09-22T17:36:55.486Z,15.50
2022-09-22T17:39:25.810Z,15.40
2022-09-22T17:41:54.769Z,15.30
2022-09-22T17:44:22.927Z,15.20
2022-09-22T17:47:09.861Z,15.00
2022-09-22T17:49:55.194Z,14.90
2022-09-22T17:52:40.607Z,14.70
2022-09-22T17:55:16.128Z,14.50
2022-09-22T17:57:45.620Z,14.40
2022-09-22T18:00:16.126Z,14.30
2022-09-22T18:02:45.077Z,14.20
2022-09-22T18:05:16.183Z,14.10
2022-09-22T18:07:44.171Z,14.10
2022-09-22T18:10:15.670Z,14.00
2022-09-22T18:12:44.253Z,13.90
2022-09-22T18:15:14.067Z,13.80
2022-09-22T18:17:43.350Z,13.80
2022-09-22T18:20:13.135Z,13.70
2022-09-22T18:22:41.994Z,13.60
2022-09-22T18:25:11.368Z,13.50
2022-09-22T18:27:42.345Z,13.40
2022-09-22T18:30:15.796Z,13.30
2022-09-22T18:32:44.196Z,13.30
2022-09-22T18:35:12.851Z,13.20
2022-09-22T18:37:41.809Z,13.20
2022-09-22T18:40:12.839Z,13.10
2022-09-22T18:42:44.343Z,13.10
2022-09-22T18:45:14.216Z,13.10
2022-09-22T18:47:47.268Z,13.10
2022-09-22T18:50:15.434Z,13.10
2022-09-22T18:52:45.961Z,13.00
2022-09-22T18:55:17.449Z,12.90
2022-09-22T18:57:47.826Z,12.80
2022-09-22T19:00:21.044Z,12.80
2022-09-22T19:02:52.493Z,12.70
2022-09-22T19:05:20.534Z,12.70
2022-09-22T19:07:48.763Z,12.60
2022-09-22T19:10:22.221Z,12.50
2022-09-22T19:12:51.803Z,12.50
2022-09-22T19:15:20.295Z,12.40
2022-09-22T19:17:52.046Z,12.40
2022-09-22T19:20:23.068Z,12.40
2022-09-22T19:22:54.478Z,12.30
2022-09-22T19:25:23.276Z,12.30
2022-09-22T19:27:53.496Z,12.20
2022-09-22T19:30:25.711Z,12.20
2022-09-22T19:32:55.867Z,12.10
2022-09-22T19:35:23.873Z,12.10
2022-09-22T19:37:52.481Z,12.00
2022-09-22T19:40:24.805Z,12.00
2022-09-22T19:42:55.152Z,11.90
2022-09-22T19:45:23.858Z,11.90
2022-09-22T19:47:51.851Z,11.80
2022-09-22T19:50:22.026Z,11.80
2022-09-22T19:52:50.321Z,11.80
2022-09-22T19:55:21.035Z,11.70
2022-09-22T19:57:49.869Z,11.70
2022-09-22T20:00:26.292Z,11.60
2022-09-22T20:02:58.299Z,11.60
2022-09-22T20:05:28.909Z,11.50
2022-09-22T20:07:58.930Z,11.50
2022-09-22T20:10:31.580Z,11.50
2022-09-22T20:12:59.717Z,11.50
2022-09-22T20:15:28.921Z,11.40
2022-09-22T20:17:58.017Z,11.30
2022-09-22T20:20:28.771Z,11.30
2022-09-22T20:22:59.952Z,11.30
2022-09-22T20:25:29.879Z,11.20
2022-09-22T20:27:58.311Z,11.20
2022-09-22T20:30:27.465Z,11.20
2022-09-22T20:33:22.044Z,11.10
2022-09-22T20:35:52.859Z,11.10
2022-09-22T20:38:33.897Z,11.10
2022-09-22T20:41:30.300Z,11.00
2022-09-22T20:44:34.241Z,11.00
2022-09-22T20:47:14.875Z,10.90
2022-09-22T20:49:55.210Z,10.90
2022-09-22T20:52:44.809Z,10.80
2022-09-22T20:55:34.846Z,10.80
2022-09-22T20:58:27.039Z,10.80
2022-09-22T21:00:57.910Z,10.80
2022-09-22T21:03:26.089Z,10.70
2022-09-22T21:06:14.704Z,10.70
2022-09-22T21:09:01.834Z,10.70
2022-09-22T21:11:32.085Z,10.60
2022-09-22T21:14:06.152Z,10.60
2022-09-22T21:16:35.830Z,10.60
2022-09-22T21:19:07.672Z,10.60
2022-09-22T21:21:37.823Z,10.50
2022-09-22T21:24:06.252Z,10.50
2022-09-22T21:26:34.684Z,10.50
2022-09-22T21:29:02.526Z,10.50
2022-09-22T21:31:31.822Z,10.50
2022-09-22T21:33:59.713Z,10.40
2022-09-22T21:36:30.106Z,10.40
2022-09-22T21:39:00.602Z,10.40
2022-09-22T21:41:30.058Z,10.40
2022-09-22T21:44:00.757Z,10.40
2022-09-22T21:46:30.847Z,10.30
2022-09-22T21:49:00.875Z,10.30
2022-09-22T21:51:30.561Z,10.30
2022-09-22T21:53:59.779Z,10.30
2022-09-22T21:56:30.220Z,10.30
2022-09-22T21:58:58.655Z,10.20
2022-09-22T22:01:28.061Z,10.20
2022-09-22T22:03:58.379Z,10.20
2022-09-22T22:06:28.255Z,10.10
2022-09-22T22:09:00.762Z,10.20
2022-09-22T22:11:32.672Z,10.10
2022-09-22T22:14:05.028Z,10.10
2022-09-22T22:16:35.355Z,10.10
2022-09-22T22:19:03.472Z,10.00
2022-09-22T22:21:31.969Z,10.00
2022-09-22T22:24:21.940Z,10.00
2022-09-22T22:26:52.850Z,10.00
2022-09-22T22:29:21.808Z,9.90
2022-09-22T22:31:50.638Z,9.90
2022-09-22T22:34:20.535Z,9.90
2022-09-22T22:36:49.289Z,9.90
2022-09-22T22:39:17.393Z,9.80
2022-09-22T22:41:45.851Z,9.80
2022-09-22T22:44:16.288Z,9.80
2022-09-22T22:46:44.342Z,9.80
2022-09-22T22:49:12.600Z,9.70
2022-09-22T22:51:43.060Z,9.70
2022-09-22T22:54:12.087Z,9.70
2022-09-22T22:56:44.332Z,9.70
2022-09-22T22:59:16.085Z,9.70
2022-09-22T23:01:44.344Z,9.60
2022-09-22T23:04:13.295Z,9.60
2022-09-22T23:06:44.518Z,9.60
2022-09-22T23:09:14.779Z,9.60
2022-09-22T23:11:43.304Z,9.50
2022-09-22T23:14:13.130Z,9.50
2022-09-22T23:16:45.236Z,9.50
2022-09-22T23:19:16.800Z,9.50
2022-09-22T23:21:45.828Z,9.40
2022-09-22T23:24:16.379Z,9.50
2022-09-22T23:26:44.904Z,9.40
2022-09-22T23:29:12.966Z,9.40
2022-09-22T23:31:42.151Z,9.40
2022-09-22T23:34:10.044Z,9.40
2022-09-22T23:36:39.417Z,9.40
2022-09-22T23:39:07.393Z,9.40
2022-09-22T23:41:37.726Z,9.30
2022-09-22T23:44:06.502Z,9.30
2022-09-22T23:46:34.587Z,9.30
2022-09-22T23:49:03.787Z,9.30
2022-09-22T23:51:31.787Z,9.30
2022-09-22T23:53:59.894Z,9.30
2022-09-22T23:56:27.880Z,9.30
2022-09-22T23:58:55.986Z,9.30
